createdAt,value
2019-04-29T04:54:24.276Z,98269.71
2019-04-29T04:59:25.156Z,98269.49
2019-04-29T05:04:26.027Z,98276.00
2019-04-29T05:09:27.004Z,98272.84
2019-04-29T05:14:27.879Z,98264.48
2019-04-29T05:19:28.774Z,98263.55
2019-04-29T05:24:29.651Z,98262.70
2019-04-29T05:29:30.521Z,98262.16
2019-04-29T05:34:33.399Z,98275.78
2019-04-29T05:39:38.943Z,98270.57
2019-04-29T05:44:41.712Z,98275.58
2019-04-29T05:49:47.214Z,98276.74
2019-04-29T05:54:48.093Z,98271.41
2019-04-29T05:59:49.531Z,98272.41
2019-04-29T06:04:52.457Z,98265.39
2019-04-29T06:09:53.364Z,98274.48
2019-04-29T06:14:54.220Z,98270.72
2019-04-29T06:19:55.101Z,98271.86
2019-04-29T06:24:55.969Z,98263.20
2019-04-29T06:29:58.523Z,98262.64
2019-04-29T06:34:59.610Z,98263.70
2019-04-29T06:40:00.598Z,98267.30
2019-04-29T06:45:05.340Z,98264.64
2019-04-29T06:50:06.591Z,98265.82
2019-04-29T06:55:07.668Z,98269.09
2019-04-29T07:00:10.040Z,98269.89
2019-04-29T07:05:11.232Z,98265.48
2019-04-29T07:10:12.211Z,98267.12
2019-04-29T07:15:13.924Z,98266.48
2019-04-29T07:20:15.194Z,98269.16
2019-04-29T07:25:16.050Z,98268.20
2019-04-29T07:30:17.136Z,98270.41
2019-04-29T07:35:18.007Z,98265.00
2019-04-29T07:40:19.476Z,98266.34
2019-04-29T07:45:44.264Z,98258.38
2019-04-29T07:50:43.384Z,98251.13
2019-04-29T07:55:44.251Z,98239.23
2019-04-29T08:00:48.817Z,98238.19
2019-04-29T08:05:50.122Z,98248.52
2019-04-29T08:10:56.057Z,98245.44
2019-04-29T08:15:54.075Z,98234.13
2019-04-29T08:20:54.942Z,98234.30
2019-04-29T08:25:57.651Z,98240.34
2019-04-29T08:30:58.584Z,98233.67
2019-04-29T08:35:59.980Z,98227.49
2019-04-29T08:41:00.840Z,98233.08
2019-04-29T08:46:03.715Z,98233.93
2019-04-29T08:51:04.669Z,98231.25
2019-04-29T08:56:10.005Z,98234.55
2019-04-29T09:01:08.431Z,98225.91
2019-04-29T09:06:09.311Z,98214.59
2019-04-29T09:11:12.821Z,98214.73
2019-04-29T09:16:12.962Z,98211.20
2019-04-29T09:21:13.835Z,98212.55
2019-04-29T09:26:24.444Z,98206.30
2019-04-29T09:31:25.653Z,98201.31
2019-04-29T09:36:28.785Z,98198.85
2019-04-29T09:41:35.023Z,98181.25
2019-04-29T09:46:45.212Z,98176.67
2019-04-29T09:51:46.088Z,98175.75
2019-04-29T09:56:46.963Z,98172.02
2019-04-29T10:01:54.983Z,98177.31
2019-04-29T10:06:57.357Z,98169.42
2019-04-29T10:11:58.230Z,98171.69
2019-04-29T10:17:18.032Z,98164.78
2019-04-29T10:22:19.027Z,98153.78
2019-04-29T10:27:20.001Z,98152.73
2019-04-29T10:32:21.072Z,98143.83
2019-04-29T10:37:23.826Z,98141.59
2019-04-29T10:42:29.951Z,98135.67
2019-04-29T10:47:32.729Z,98124.94
2019-04-29T10:52:34.499Z,98120.67
2019-04-29T10:57:38.384Z,98128.34
2019-04-29T11:02:44.849Z,98128.41
2019-04-29T11:07:47.393Z,98120.80
2019-04-29T11:12:48.564Z,98120.75
2019-04-29T11:17:58.866Z,98120.75
2019-04-29T11:23:16.658Z,98119.81
2019-04-29T11:28:16.093Z,98125.50
2019-04-29T11:33:39.972Z,98121.73
2019-04-29T11:38:41.070Z,98115.25
2019-04-29T11:43:51.129Z,98111.58
2019-04-29T11:48:59.384Z,98110.08
2019-04-29T11:54:08.143Z,98106.62
2019-04-29T11:59:10.997Z,98106.20
2019-04-29T12:04:16.487Z,98100.31
2019-04-29T12:09:17.761Z,98096.71
2019-04-29T12:14:20.644Z,98104.70
2019-04-29T12:19:30.906Z,98089.77
2019-04-29T12:24:33.668Z,98087.30
2019-04-29T12:29:35.306Z,98088.84
2019-04-29T12:34:39.046Z,98094.39
2019-04-29T12:39:50.851Z,98090.17
2019-04-29T12:44:53.631Z,98095.36
2019-04-29T12:49:55.004Z,98088.64
2019-04-29T12:54:56.100Z,98080.36
2019-04-29T12:59:56.956Z,98078.04
2019-04-29T13:05:05.717Z,98065.31
2019-04-29T13:10:13.661Z,98079.17
2019-04-29T13:15:33.365Z,98069.31
2019-04-29T13:20:34.511Z,98073.82
2019-04-29T13:25:35.385Z,98070.28
2019-04-29T13:30:36.469Z,98071.61
2019-04-29T13:35:37.422Z,98051.34
2019-04-29T13:40:39.441Z,98053.58
2019-04-29T13:45:42.370Z,98057.17
2019-04-29T13:50:45.148Z,98051.77
2019-04-29T13:55:49.216Z,98053.14
2019-04-29T14:00:50.819Z,98046.98
2019-04-29T14:06:03.601Z,98046.35
2019-04-29T14:10:54.791Z,98046.35
2019-04-29T14:15:55.864Z,98043.27
2019-04-29T14:20:56.754Z,98042.25
2019-04-29T14:25:57.619Z,98044.03
2019-04-29T14:30:58.799Z,98038.39
2019-04-29T14:36:04.573Z,98048.34
2019-04-29T14:41:05.571Z,98043.54
2019-04-29T14:46:17.425Z,98042.56
2019-04-29T14:51:18.400Z,98045.38
2019-04-29T14:56:19.375Z,98048.55
2019-04-29T15:01:34.522Z,98048.64
2019-04-29T15:06:35.512Z,98053.89
2019-04-29T15:11:41.086Z,98052.29
2019-04-29T15:16:43.002Z,98050.52
2019-04-29T15:21:46.387Z,98061.44
2019-04-29T15:26:47.674Z,98061.94
2019-04-29T15:31:48.933Z,98063.02
2019-04-29T15:36:50.131Z,98068.25
2019-04-29T15:41:54.053Z,98066.33
2019-04-29T15:46:53.795Z,98073.37
2019-04-29T15:51:54.680Z,98070.43
2019-04-29T15:56:55.891Z,98076.14
2019-04-29T16:01:59.241Z,98070.43
2019-04-29T16:07:05.973Z,98070.92
2019-04-29T16:12:15.416Z,98073.27
2019-04-29T16:17:20.233Z,98073.63
2019-04-29T16:22:19.802Z,98083.83
2019-04-29T16:27:21.010Z,98092.80
2019-04-29T16:32:29.831Z,98092.93
2019-04-29T16:37:31.735Z,98086.14
2019-04-29T16:42:35.068Z,98087.21
2019-04-29T16:47:36.051Z,98090.86
2019-04-29T16:52:43.981Z,98090.63
2019-04-29T16:57:39.692Z,98100.09
2019-04-29T17:02:40.627Z,98092.93
2019-04-29T17:07:42.034Z,98102.01
2019-04-29T17:12:44.822Z,98103.82
2019-04-29T17:17:45.704Z,98109.03
2019-04-29T17:22:46.559Z,98113.66
2019-04-29T17:27:49.447Z,98114.88
2019-04-29T17:33:02.031Z,98109.41
2019-04-29T17:38:03.470Z,98118.33
2019-04-29T17:43:15.651Z,98127.57
2019-04-29T17:48:30.760Z,98123.11
2019-04-29T17:53:36.618Z,98124.45
2019-04-29T17:58:43.894Z,98129.86
2019-04-29T18:03:55.971Z,98127.14
2019-04-29T18:09:05.030Z,98126.31
2019-04-29T18:14:06.688Z,98134.80
2019-04-29T18:19:12.433Z,98138.58
2019-04-29T18:24:34.134Z,98145.67
2019-04-29T18:29:41.444Z,98141.96
2019-04-29T18:34:38.079Z,98138.98
2019-04-29T18:39:38.939Z,98141.55
2019-04-29T18:44:40.542Z,98138.16
2019-04-29T18:49:42.599Z,98135.61
2019-04-29T18:54:44.999Z,98141.72
2019-04-29T18:59:45.948Z,98145.67
2019-04-29T19:04:53.519Z,98147.77
2019-04-29T19:09:55.535Z,98144.45
2019-04-29T19:14:59.689Z,98150.28
2019-04-29T19:19:59.279Z,98162.14
2019-04-29T19:25:00.174Z,98160.63
2019-04-29T19:30:01.755Z,98168.98
2019-04-29T19:35:04.631Z,98166.63
2019-04-29T19:40:08.047Z,98156.22
2019-04-29T19:45:13.391Z,98157.55
2019-04-29T19:50:16.702Z,98150.73
2019-04-29T19:55:14.495Z,98150.04
2019-04-29T20:00:17.621Z,98153.62
2019-04-29T20:05:30.634Z,98153.43
2019-04-29T20:10:28.812Z,98151.40
2019-04-29T20:15:32.590Z,98158.19
2019-04-29T20:20:38.736Z,98158.91
2019-04-29T20:25:38.916Z,98165.38
2019-04-29T20:30:40.189Z,98156.25
2019-04-29T20:35:45.399Z,98140.55
2019-04-29T20:40:46.308Z,98137.11
2019-04-29T20:45:46.949Z,98133.95
2019-04-29T20:50:52.657Z,98134.89
2019-04-29T20:55:50.732Z,98137.16
2019-04-29T21:00:56.535Z,98143.70
2019-04-29T21:06:02.357Z,98142.22
2019-04-29T21:10:59.752Z,98133.77
2019-04-29T21:16:22.879Z,98129.53
2019-04-29T21:21:25.435Z,98123.80
2019-04-29T21:26:26.280Z,98135.83
2019-04-29T21:31:27.144Z,98141.07
2019-04-29T21:36:32.509Z,98146.80
2019-04-29T21:41:50.700Z,98133.37
2019-04-29T21:46:55.145Z,98131.71
2019-04-29T21:51:55.972Z,98132.23
2019-04-29T21:56:56.846Z,98126.67
2019-04-29T22:01:59.257Z,98127.77
2019-04-29T22:07:04.801Z,98127.44
2019-04-29T22:12:03.197Z,98136.67
2019-04-29T22:17:05.244Z,98145.20
2019-04-29T22:22:06.369Z,98140.69
2019-04-29T22:27:08.247Z,98140.16
2019-04-29T22:32:14.635Z,98148.20
2019-04-29T22:37:12.292Z,98151.91
2019-04-29T22:42:23.597Z,98147.80
2019-04-29T22:47:24.986Z,98140.53
2019-04-29T22:52:29.946Z,98149.41
2019-04-29T22:57:31.604Z,98149.81
2019-04-29T23:02:31.521Z,98149.69
2019-04-29T23:07:32.413Z,98137.66
2019-04-29T23:12:34.955Z,98141.73
2019-04-29T23:17:36.060Z,98140.10
2019-04-29T23:28:04.259Z,98124.41
2019-04-29T23:33:05.543Z,98125.75
2019-04-29T23:38:09.350Z,98118.04
2019-04-29T23:43:09.240Z,98111.37
2019-04-29T23:48:10.217Z,98116.42
2019-04-29T23:53:11.104Z,98111.98
2019-04-29T23:58:19.927Z,98096.16
